Aviation Digital Data Service (ADDS)

Output produced by METARs form (1356 UTC 30 June 2016)
found at http://www.aviationweather.gov/adds/metars/
 
KROW 301351Z 00000KT 10SM CLR 25/13 A3012 RMK AO2 SLP126 T02500128
KROW 301251Z 16007KT 10SM CLR 22/12 A3011 RMK AO2 SLP124 T02220117
KROW 301151Z 23005KT 10SM CLR 18/11 A3010 RMK AO2 SLP123 T01830111 10272 20183 53003
KROW 301051Z AUTO 16006KT 10SM CLR 20/11 A3009 RMK AO2 SLP117 T02000106
KROW 300951Z AUTO 19004KT 10SM CLR 21/10 A3008 RMK AO2 SLP114 T02060100
KROW 300851Z AUTO 21006KT 10SM CLR 22/11 A3009 RMK AO2 SLP116 T02220106 58005
KROW 300751Z AUTO 21007KT 10SM CLR 23/10 A3010 RMK AO2 SLP119 T02330100
KROW 300651Z AUTO 19008KT 10SM CLR 26/10 A3010 RMK AO2 SLP120 T02560100 403610183
KROW 300551Z AUTO 18009KT 10SM CLR 28/10 A3011 RMK AO2 SLP120 60000 T02780100 10356 20278 51014
KROW 300451Z AUTO 19007KT 10SM FEW065 BKN100 29/11 A3011 RMK AO2 RAB34E43 TSB09 SLP121 P0000 T02890106
KROW 300435Z AUTO 16006KT 10SM -RA FEW050 SCT085 OVC110 30/11 A3011 RMK AO2 RAB34 TSB09 P0000 T03000111
KROW 300415Z AUTO 14008KT 10SM TS FEW041 OVC090 30/11 A3011 RMK AO2 TSB09 T03000111
KROW 300406Z AUTO 12006KT 10SM FEW045 FEW055 OVC095 30/12 A3010 RMK AO2 T03000117
KROW 300351Z AUTO 09010KT 10SM VCTS OVC090 30/12 A3009 RMK AO2 SLP117 T03000122
KROW 300338Z AUTO 10005KT 10SM VCTS OVC095 31/11 A3008 RMK AO2 LTG DSNT E T03060106
KROW 300251Z AUTO 17009KT 10SM FEW110 31/11 A3006 RMK AO2 LTG DSNT E SLP105 T03060111 53010
KROW 300151Z 17010KT 10SM FEW095 33/11 A3004 RMK AO2 LTG DSNT NE SLP100 T03280106
KROW 300149Z 17011KT 10SM FEW095 33/11 A3004 RMK AO2 LTG DSNT NE
KROW 300132Z 17012KT 10SM VCTS CLR 34/10 A3003 RMK AO2 LTG DSNT E T03390100
KROW 300051Z 14010KT 10SM CLR 34/09 A3003 RMK AO2 LTG DSNT E SLP096 T03440094
KROW 292351Z 11007KT 10SM CLR 35/08 A3002 RMK AO2 SLP096 T03500078 10361 20322 56019
KROW 292251Z 08005KT 10SM CLR 36/08 A3004 RMK AO2 SLP101 T03560078
KROW 292151Z 00000KT 10SM CLR 35/08 A3006 RMK AO2 SLP109 T03500083
KROW 292051Z 16007KT 10SM FEW090 35/09 A3009 RMK AO2 SLP116 T03500089 56024
KROW 291951Z VRB06KT 10SM CLR 34/11 A3011 RMK AO2 SLP125 T03390111
KROW 291851Z 14008G18KT 110V180 10SM FEW075 33/10 A3014 RMK AO2 SLP133 T03330100
KROW 291751Z 10SM CLR 32/13 A3016 RMK AO2 SLP143 T03220133 10322 20189 58013
KROW 291651Z VRB03KT 10SM CLR 31/14 A3019 RMK AO2 SLP152 T03060139
KROW 291551Z VRB05KT 10SM CLR 29/14 A3020 RMK AO2 SLP156 T02890144
KROW 291451Z 22006KT 10SM CLR 28/14 A3021 RMK AO2 SLP159 T02780139 50004
KROW 301140Z 3012/0112 17007KT P6SM FEW120 
     FM301800 16010KT P6SM FEW090 
     FM302100 15014KT P6SM SCT090 
     FM010300 17009KT P6SM SCT120